South Chatham, New Hampshire
Current Conditions -  °F | °C
As of 11:54 AM on Friday 24 Oct 2014 (Local Time) from KIZG Reporting Station
Light Rain Light Rain  
Wind Chill: 50°   Ceiling: 3400
Heat Index: 50°   Visibility: 10mi
Dew Point: 46°   Wind: 5mph
Humidity: 86%   Direction: 350°N
Pressure: 29.72"   Gusts: NA
Location:  43.9597°N, 71.0453°W
Report Text: KIZG 241554Z AUTO 35004KT 10SM -RA BKN034 OVC045 10/08 A2972 RMK AO2 SLP067 P0001 T01000078
Loading
Personal Weather Stations






























Interactive Weather Map
Tropical Storm Tracking
New forecast layout! Learn more

10-Day Weather Forecast

Advertisements
Track Severe Weather on mobile